createdAt,value
2019-01-08T00:00:36.429Z,95626.37
2019-01-08T00:03:05.062Z,95622.08
2019-01-08T00:05:33.729Z,95621.88
2019-01-08T00:08:02.228Z,95613.19
2019-01-08T00:10:30.853Z,95610.84
2019-01-08T00:12:59.909Z,95616.52
2019-01-08T00:15:28.486Z,95616.28
2019-01-08T00:17:57.042Z,95615.19
2019-01-08T00:20:25.697Z,95609.90
2019-01-08T00:22:54.324Z,95611.23
2019-01-08T00:25:33.165Z,95605.78
2019-01-08T00:27:53.085Z,95608.09
2019-01-08T00:30:21.710Z,95611.31
2019-01-08T00:32:50.201Z,95610.22
2019-01-08T00:35:18.880Z,95612.80
2019-01-08T00:37:47.505Z,95609.91
2019-01-08T00:40:16.030Z,95611.23
2019-01-08T00:42:44.568Z,95607.12
2019-01-08T00:45:13.195Z,95611.47
2019-01-08T00:47:41.832Z,95604.26
2019-01-08T00:50:10.507Z,95610.80
2019-01-08T00:52:39.038Z,95614.91
2019-01-08T00:55:07.668Z,95613.78
2019-01-08T00:57:39.216Z,95604.81
2019-01-08T01:00:09.619Z,95597.40
2019-01-08T01:02:38.206Z,95607.27
2019-01-08T01:05:07.020Z,95604.84
2019-01-08T01:07:35.655Z,95609.94
2019-01-08T01:10:05.477Z,95600.75
2019-01-08T01:12:34.151Z,95591.97
2019-01-08T01:15:02.652Z,95598.52
2019-01-08T01:17:31.145Z,95595.53
2019-01-08T01:19:59.810Z,95594.17
2019-01-08T01:22:28.444Z,95590.41
2019-01-08T01:24:57.014Z,95585.74
2019-01-08T01:27:25.555Z,95585.53
2019-01-08T01:29:54.288Z,95588.63
2019-01-08T01:32:22.921Z,95587.19
2019-01-08T01:34:51.527Z,95583.98
2019-01-08T01:37:20.144Z,95585.66
2019-01-08T01:39:48.774Z,95584.88
2019-01-08T01:42:17.459Z,95582.20
2019-01-08T01:44:45.951Z,95571.20
2019-01-08T01:47:14.454Z,95563.09
2019-01-08T01:49:43.107Z,95568.66
2019-01-08T01:52:11.681Z,95569.33
2019-01-08T01:54:40.240Z,95563.54
2019-01-08T01:57:08.891Z,95565.11
2019-01-08T01:59:37.540Z,95565.55
2019-01-08T02:02:06.164Z,95563.09
2019-01-08T02:04:34.821Z,95561.10
2019-01-08T02:07:03.533Z,95560.44
2019-01-08T02:09:32.024Z,95552.64
2019-01-08T02:12:00.612Z,95559.34
2019-01-08T02:14:29.248Z,95554.65
2019-01-08T02:16:57.872Z,95555.66
2019-01-08T02:19:26.479Z,95547.22
2019-01-08T02:21:55.038Z,95546.01
2019-01-08T02:24:23.657Z,95545.33
2019-01-08T02:26:52.504Z,95541.55
2019-01-08T02:29:20.999Z,95535.20
2019-01-08T02:31:49.637Z,95531.88
2019-01-08T02:34:18.181Z,95523.33
2019-01-08T02:36:46.683Z,95517.67
2019-01-08T02:39:15.317Z,95522.08
2019-01-08T02:41:44.038Z,95519.87
2019-01-08T02:44:12.654Z,95513.08
2019-01-08T02:46:41.466Z,95507.50
2019-01-08T02:49:10.359Z,95502.19
2019-01-08T02:51:38.982Z,95500.05
2019-01-08T02:54:07.491Z,95500.40
2019-01-08T02:56:36.085Z,95500.08
2019-01-08T02:59:04.725Z,95497.19
2019-01-08T03:01:33.400Z,95498.84
2019-01-08T03:04:01.952Z,95496.37
2019-01-08T03:06:30.511Z,95489.18
2019-01-08T03:08:59.189Z,95492.17
2019-01-08T03:11:27.801Z,95490.09
2019-01-08T03:13:56.439Z,95482.94
2019-01-08T03:16:25.072Z,95487.27
2019-01-08T03:18:53.751Z,95484.05
2019-01-08T03:21:22.375Z,95480.92
2019-01-08T03:23:51.072Z,95478.84
2019-01-08T03:26:19.727Z,95475.19
2019-01-08T03:28:48.215Z,95472.27
2019-01-08T03:31:16.800Z,95483.36
2019-01-08T03:33:45.472Z,95475.59
2019-01-08T03:36:14.116Z,95469.56
2019-01-08T03:38:42.596Z,95471.03
2019-01-08T03:41:11.113Z,95476.27
2019-01-08T03:43:39.753Z,95470.41
2019-01-08T03:46:08.382Z,95473.93
2019-01-08T03:48:36.980Z,95478.16
2019-01-08T03:51:05.609Z,95476.37
2019-01-08T03:53:34.177Z,95474.37
2019-01-08T03:56:02.773Z,95475.03
2019-01-08T03:58:31.407Z,95464.14
2019-01-08T04:01:00.037Z,95458.93
2019-01-08T04:03:28.578Z,95460.13
2019-01-08T04:05:57.206Z,95458.80
2019-01-08T04:08:25.836Z,95463.45
2019-01-08T04:10:54.520Z,95459.13
2019-01-08T04:13:23.025Z,95460.81
2019-01-08T04:15:51.665Z,95452.68
2019-01-08T04:18:20.350Z,95456.78
2019-01-08T04:20:48.978Z,95457.01
2019-01-08T04:23:17.480Z,95451.91
2019-01-08T04:25:46.139Z,95453.47
2019-01-08T04:28:14.842Z,95451.58
2019-01-08T04:30:43.407Z,95449.70
2019-01-08T04:33:12.097Z,95439.02
2019-01-08T04:35:40.716Z,95438.25
2019-01-08T04:38:09.215Z,95443.37
2019-01-08T04:40:37.732Z,95437.27
2019-01-08T04:43:06.358Z,95427.80
2019-01-08T04:45:34.978Z,95427.15
2019-01-08T04:48:03.514Z,95431.19
2019-01-08T04:50:32.118Z,95422.14
2019-01-08T04:53:00.765Z,95426.66
2019-01-08T04:55:29.453Z,95429.03
2019-01-08T04:57:57.948Z,95428.13
2019-01-08T05:00:26.503Z,95426.01
2019-01-08T05:02:55.180Z,95427.34
2019-01-08T05:05:23.820Z,95430.14
2019-01-08T05:07:52.311Z,95426.59
2019-01-08T05:10:20.843Z,95427.37
2019-01-08T05:12:49.467Z,95424.35
2019-01-08T05:15:18.094Z,95420.08
2019-01-08T05:17:46.695Z,95425.41
2019-01-08T05:20:15.192Z,95427.66
2019-01-08T05:22:43.822Z,95422.09
2019-01-08T05:25:12.515Z,95423.33
2019-01-08T05:27:41.076Z,95418.00
2019-01-08T05:30:10.988Z,95410.95
2019-01-08T05:32:39.663Z,95405.17
2019-01-08T05:35:08.299Z,95407.47
2019-01-08T05:37:36.867Z,95417.31
2019-01-08T05:40:07.448Z,95412.16
2019-01-08T05:42:36.087Z,95411.34
2019-01-08T05:45:05.631Z,95405.77
2019-01-08T05:47:34.176Z,95409.90
2019-01-08T05:50:02.818Z,95396.47
2019-01-08T05:52:31.296Z,95399.69
2019-01-08T05:54:59.835Z,95404.70
2019-01-08T05:57:28.480Z,95396.51
2019-01-08T05:59:57.210Z,95399.11
2019-01-08T06:02:25.898Z,95405.48
2019-01-08T06:04:54.386Z,95413.13
2019-01-08T06:07:23.027Z,95402.20
2019-01-08T06:09:51.724Z,95401.98
2019-01-08T06:12:20.277Z,95396.20
2019-01-08T06:14:48.779Z,95403.80
2019-01-08T06:17:17.458Z,95399.49
2019-01-08T06:19:46.081Z,95399.05
2019-01-08T06:22:14.566Z,95403.61
2019-01-08T06:24:43.104Z,95397.17
2019-01-08T06:27:11.748Z,95400.16
2019-01-08T06:29:40.428Z,95393.66
2019-01-08T06:32:09.097Z,95402.46
2019-01-08T06:34:37.886Z,95401.25
2019-01-08T06:37:06.521Z,95394.81
2019-01-08T06:39:35.054Z,95401.89
2019-01-08T06:42:03.844Z,95405.72
2019-01-08T06:44:32.509Z,95402.09
2019-01-08T06:47:01.044Z,95399.76
2019-01-08T06:49:29.552Z,95394.42
2019-01-08T06:51:58.172Z,95384.91
2019-01-08T06:54:26.852Z,95395.07
2019-01-08T06:56:55.419Z,95390.90
2019-01-08T06:59:26.754Z,95390.09
2019-01-08T07:01:55.456Z,95382.02
2019-01-08T07:04:24.093Z,95381.72
2019-01-08T07:06:52.658Z,95378.38
2019-01-08T07:09:21.398Z,95379.60
2019-01-08T07:11:50.093Z,95377.38
2019-01-08T07:14:18.595Z,95367.25
2019-01-08T07:16:47.266Z,95374.54
2019-01-08T07:19:15.905Z,95373.75
2019-01-08T07:21:44.627Z,95373.75
2019-01-08T07:24:13.234Z,95370.00
2019-01-08T07:26:41.874Z,95372.89
2019-01-08T07:29:10.507Z,95370.39
2019-01-08T07:31:39.036Z,95377.63
2019-01-08T07:34:07.546Z,95378.95
2019-01-08T07:36:36.177Z,95377.45
2019-01-08T07:39:05.439Z,95376.30
2019-01-08T07:41:33.932Z,95365.10
2019-01-08T07:44:02.558Z,95375.27
2019-01-08T07:46:31.234Z,95367.21
2019-01-08T07:48:59.744Z,95369.82
2019-01-08T07:51:28.372Z,95359.27
2019-01-08T07:53:57.067Z,95363.28
2019-01-08T07:56:25.627Z,95365.32
2019-01-08T07:58:54.226Z,95349.28
2019-01-08T08:01:22.913Z,95348.28
2019-01-08T08:03:51.533Z,95349.28
2019-01-08T08:06:20.034Z,95343.72
2019-01-08T08:08:48.670Z,95347.32
2019-01-08T08:11:17.305Z,95344.22
2019-01-08T08:13:45.933Z,95338.80
2019-01-08T08:21:47.171Z,95333.59
2019-01-08T08:24:15.726Z,95337.01
2019-01-08T08:26:44.352Z,95336.34
2019-01-08T08:29:13.018Z,95332.93
2019-01-08T08:31:41.582Z,95327.67
2019-01-08T08:34:10.147Z,95325.11
2019-01-08T08:36:38.706Z,95327.63
2019-01-08T08:39:07.339Z,95325.23
2019-01-08T08:41:35.970Z,95325.59
2019-01-08T08:44:04.713Z,95328.02
2019-01-08T08:46:33.220Z,95320.09
2019-01-08T08:49:01.779Z,95317.67
2019-01-08T08:51:30.558Z,95322.99
2019-01-08T08:53:59.195Z,95314.08
2019-01-08T08:56:27.824Z,95311.09
2019-01-08T08:58:56.427Z,95307.06
2019-01-08T09:01:25.060Z,95301.19
2019-01-08T09:03:53.618Z,95299.92
2019-01-08T09:06:22.143Z,95296.69
2019-01-08T09:08:50.728Z,95295.86
2019-01-08T09:11:19.291Z,95290.42
2019-01-08T09:13:47.881Z,95287.91
2019-01-08T09:16:16.515Z,95282.05
2019-01-08T09:18:45.248Z,95272.52
2019-01-08T09:21:13.785Z,95270.38
2019-01-08T09:23:42.414Z,95269.16
2019-01-08T09:26:11.037Z,95256.45
2019-01-08T09:28:39.731Z,95254.42
2019-01-08T09:31:15.362Z,95242.58
2019-01-08T09:33:38.642Z,95239.30
2019-01-08T09:36:07.319Z,95229.58
2019-01-08T09:38:35.883Z,95226.14
2019-01-08T09:41:04.442Z,95214.83
2019-01-08T09:43:33.054Z,95221.61
2019-01-08T09:46:01.687Z,95216.44
2019-01-08T09:48:30.342Z,95215.36
2019-01-08T09:50:58.949Z,95204.56
2019-01-08T09:53:27.575Z,95202.64
2019-01-08T09:55:56.273Z,95196.94
2019-01-08T09:58:24.973Z,95183.31
2019-01-08T10:00:53.595Z,95179.42
2019-01-08T10:03:22.144Z,95172.16
2019-01-08T10:05:50.751Z,95169.61
2019-01-08T10:08:19.379Z,95169.92
2019-01-08T10:10:48.000Z,95165.48
2019-01-08T10:13:16.668Z,95159.67
2019-01-08T10:15:45.275Z,95153.67
2019-01-08T10:18:13.828Z,95143.61
2019-01-08T10:20:42.490Z,95134.86
2019-01-08T10:23:11.056Z,95125.52
2019-01-08T10:25:39.616Z,95126.40
2019-01-08T10:28:08.218Z,95122.47
2019-01-08T10:30:36.854Z,95114.74
2019-01-08T10:33:05.422Z,95101.66
2019-01-08T10:35:33.954Z,95099.67
2019-01-08T10:38:02.515Z,95090.11
2019-01-08T10:40:31.156Z,95079.06
2019-01-08T10:42:59.849Z,95078.14
2019-01-08T10:45:28.481Z,95072.92
2019-01-08T10:47:58.099Z,95065.64
2019-01-08T10:50:26.770Z,95066.27
2019-01-08T10:52:58.314Z,95055.73
2019-01-08T10:55:26.983Z,95052.23
2019-01-08T10:57:55.666Z,95046.09
2019-01-08T11:00:24.451Z,95040.03
2019-01-08T11:02:53.129Z,95031.83
2019-01-08T11:05:21.755Z,95023.52
2019-01-08T11:07:50.398Z,95019.52
2019-01-08T11:10:18.962Z,95012.20
2019-01-08T11:12:47.555Z,95005.20
2019-01-08T11:15:16.193Z,95000.08
2019-01-08T11:17:44.773Z,94995.18
2019-01-08T11:20:13.451Z,94988.64
2019-01-08T11:22:42.016Z,94991.17
2019-01-08T11:25:10.642Z,94979.33
2019-01-08T11:27:39.240Z,94972.56
2019-01-08T11:30:08.470Z,94973.80
2019-01-08T11:32:37.028Z,94960.54
2019-01-08T11:35:05.696Z,94961.00
2019-01-08T11:37:34.256Z,94961.17
2019-01-08T11:40:02.816Z,94952.53
2019-01-08T11:42:31.439Z,94954.20
2019-01-08T11:45:00.184Z,94946.34
2019-01-08T11:47:28.695Z,94933.22
2019-01-08T11:49:57.364Z,94938.18
2019-01-08T11:52:25.932Z,94939.60
2019-01-08T11:54:54.493Z,94928.12
2019-01-08T11:57:23.118Z,94923.55
2019-01-08T11:59:51.734Z,94917.28
2019-01-08T12:02:20.412Z,94916.12
2019-01-08T12:04:48.931Z,94905.81
2019-01-08T12:07:18.796Z,94904.89
2019-01-08T12:09:47.612Z,94894.36
2019-01-08T12:12:16.206Z,94889.92
2019-01-08T12:14:44.684Z,94886.44
2019-01-08T12:17:13.238Z,94887.92
2019-01-08T12:19:41.913Z,94889.11
2019-01-08T12:22:10.568Z,94881.97
2019-01-08T12:24:39.097Z,94875.05
2019-01-08T12:27:07.720Z,94872.42
2019-01-08T12:29:36.340Z,94866.65
2019-01-08T12:32:06.284Z,94867.41
2019-01-08T12:34:35.250Z,94865.50
2019-01-08T12:37:03.957Z,94862.63
2019-01-08T12:39:32.456Z,94859.36
2019-01-08T12:42:01.073Z,94859.78
2019-01-08T12:44:29.692Z,94848.84
2019-01-08T12:46:58.316Z,94851.15
2019-01-08T12:49:26.967Z,94843.46
2019-01-08T12:51:55.592Z,94840.00
2019-01-08T12:54:24.219Z,94836.94
2019-01-08T12:56:53.100Z,94838.08
2019-01-08T12:59:21.587Z,94835.60
2019-01-08T13:01:50.216Z,94828.27
2019-01-08T13:04:18.918Z,94826.36
2019-01-08T13:06:47.551Z,94825.59
2019-01-08T13:09:16.106Z,94813.91
2019-01-08T13:11:44.771Z,94810.64
2019-01-08T13:14:13.326Z,94803.52
2019-01-08T13:16:43.961Z,94800.77
2019-01-08T13:19:12.298Z,94791.96
2019-01-08T13:21:40.859Z,94793.31
2019-01-08T13:24:09.409Z,94784.88
2019-01-08T13:26:38.022Z,94777.22
2019-01-08T13:29:06.655Z,94775.88
2019-01-08T13:31:35.224Z,94778.57
2019-01-08T13:34:03.819Z,94780.88
2019-01-08T13:36:32.383Z,94782.80
2019-01-08T13:39:01.109Z,94784.92
2019-01-08T13:41:29.794Z,94780.31
2019-01-08T13:43:58.365Z,94783.00
2019-01-08T13:46:26.934Z,94777.84
2019-01-08T13:48:55.555Z,94778.00
2019-01-08T13:51:24.127Z,94770.31
2019-01-08T13:53:52.764Z,94768.03
2019-01-08T13:56:21.443Z,94762.66
2019-01-08T13:58:49.940Z,94759.97
2019-01-08T14:01:18.661Z,94759.20
2019-01-08T14:03:47.324Z,94754.60
2019-01-08T14:06:15.894Z,94746.34
2019-01-08T14:08:44.386Z,94740.40
2019-01-08T14:11:13.077Z,94733.06
2019-01-08T14:13:41.716Z,94726.70
2019-01-08T14:16:10.397Z,94721.92
2019-01-08T14:18:38.998Z,94717.06
2019-01-08T14:21:07.734Z,94721.41
2019-01-08T14:23:36.410Z,94723.54
2019-01-08T14:26:05.192Z,94724.09
2019-01-08T14:28:33.730Z,94715.27
2019-01-08T14:31:02.431Z,94714.88
2019-01-08T14:36:06.914Z,94705.97
2019-01-08T14:38:35.553Z,94695.25
2019-01-08T14:41:04.203Z,94699.25
2019-01-08T14:43:32.742Z,94703.03
2019-01-08T14:46:01.306Z,94687.51
2019-01-08T14:48:29.940Z,94685.42
2019-01-08T14:50:58.622Z,94677.92
2019-01-08T14:53:27.119Z,94687.09
2019-01-08T14:55:55.689Z,94673.52
2019-01-08T14:58:24.355Z,94674.65
2019-01-08T15:00:53.009Z,94675.42
2019-01-08T15:03:21.574Z,94673.50
2019-01-08T15:05:50.089Z,94668.48
2019-01-08T15:08:18.727Z,94680.73
2019-01-08T15:10:47.319Z,94679.97
2019-01-08T15:13:15.966Z,94675.77
2019-01-08T15:15:44.604Z,94671.55
2019-01-08T15:18:13.096Z,94674.98
2019-01-08T15:20:41.692Z,94678.14
2019-01-08T15:23:10.339Z,94679.64
2019-01-08T15:25:38.972Z,94681.32
2019-01-08T15:28:07.600Z,94681.28
2019-01-08T15:30:36.158Z,94681.05
2019-01-08T15:33:04.802Z,94671.64
2019-01-08T15:35:33.468Z,94671.05
2019-01-08T15:38:01.959Z,94679.08
2019-01-08T15:40:30.532Z,94669.89
2019-01-08T15:42:59.308Z,94667.02
2019-01-08T15:45:28.151Z,94664.23
2019-01-08T15:47:56.786Z,94669.12
2019-01-08T15:50:25.418Z,94661.38
2019-01-08T15:52:54.050Z,94661.89
2019-01-08T15:55:22.690Z,94654.27
2019-01-08T15:57:51.255Z,94668.98
2019-01-08T16:00:19.890Z,94653.82
2019-01-08T16:02:48.519Z,94646.52
2019-01-08T16:05:17.207Z,94654.72
2019-01-08T16:07:45.710Z,94651.77
2019-01-08T16:10:14.278Z,94650.66
2019-01-08T16:12:42.946Z,94654.12
2019-01-08T16:15:11.577Z,94637.74
2019-01-08T16:17:40.210Z,94658.47
2019-01-08T16:20:08.870Z,94661.92
2019-01-08T16:22:37.532Z,94658.66
2019-01-08T16:25:06.155Z,94658.06
2019-01-08T16:27:34.807Z,94660.23
2019-01-08T16:30:03.621Z,94662.44
2019-01-08T16:32:32.135Z,94657.33
2019-01-08T16:35:00.614Z,94667.47
2019-01-08T16:37:29.340Z,94664.41
2019-01-08T16:39:57.985Z,94663.05
2019-01-08T16:42:26.612Z,94661.11
2019-01-08T16:44:55.218Z,94662.97
2019-01-08T16:47:23.911Z,94664.67
2019-01-08T16:49:52.567Z,94654.77
2019-01-08T16:52:21.176Z,94656.14
2019-01-08T16:54:49.815Z,94647.14
2019-01-08T16:57:18.456Z,94654.98
2019-01-08T16:59:47.115Z,94651.73
2019-01-08T17:02:15.625Z,94656.52
2019-01-08T17:04:44.121Z,94652.30
2019-01-08T17:07:12.794Z,94657.87
2019-01-08T17:09:41.353Z,94657.10
2019-01-08T17:12:09.992Z,94656.52
2019-01-08T17:14:38.678Z,94650.57
2019-01-08T17:17:07.349Z,94664.25
2019-01-08T17:19:35.897Z,94656.35
2019-01-08T17:22:05.497Z,94653.47
2019-01-08T17:24:34.161Z,94654.06
2019-01-08T17:27:02.753Z,94647.55
2019-01-08T17:29:31.323Z,94639.75
2019-01-08T17:31:59.949Z,94625.02
2019-01-08T17:34:28.569Z,94628.27
2019-01-08T17:36:57.064Z,94622.55
2019-01-08T17:39:25.700Z,94623.32
2019-01-08T17:41:54.377Z,94624.81
2019-01-08T17:44:22.927Z,94627.30
2019-01-08T17:46:51.556Z,94625.00
2019-01-08T17:49:20.244Z,94627.28
2019-01-08T17:51:48.793Z,94628.56
2019-01-08T17:54:17.543Z,94634.15
2019-01-08T17:56:52.300Z,94628.25
2019-01-08T17:59:20.934Z,94636.75
2019-01-08T18:01:52.048Z,94627.37
2019-01-08T18:04:20.688Z,94627.19
2019-01-08T18:06:49.325Z,94630.11
2019-01-08T18:09:17.915Z,94639.92
2019-01-08T18:11:46.487Z,94641.40
2019-01-08T18:14:15.128Z,94639.50
2019-01-08T18:16:43.760Z,94624.55
2019-01-08T18:19:12.448Z,94627.63
2019-01-08T18:21:41.032Z,94626.86
2019-01-08T18:24:09.586Z,94625.17
2019-01-08T18:26:38.256Z,94624.81
2019-01-08T18:29:07.008Z,94622.88
2019-01-08T18:31:35.634Z,94622.50
2019-01-08T18:34:04.402Z,94625.16
2019-01-08T18:36:32.885Z,94620.89
2019-01-08T18:39:01.447Z,94620.38
2019-01-08T18:41:30.077Z,94617.48
2019-01-08T18:43:58.679Z,94616.46
2019-01-08T18:46:27.331Z,94617.96
2019-01-08T18:48:55.883Z,94622.16
2019-01-08T18:51:24.579Z,94612.37
2019-01-08T18:53:53.213Z,94619.30
2019-01-08T18:56:21.719Z,94620.84
2019-01-08T18:58:50.320Z,94624.48
2019-01-08T19:01:18.945Z,94620.86
2019-01-08T19:03:47.508Z,94618.59
2019-01-08T19:06:16.103Z,94607.32
2019-01-08T19:09:19.839Z,94614.42
2019-01-08T19:11:48.453Z,94618.00
2019-01-08T19:14:18.485Z,94613.09
2019-01-08T19:16:47.124Z,94599.70
2019-01-08T19:19:16.206Z,94604.30
2019-01-08T19:21:44.849Z,94603.55
2019-01-08T19:24:13.427Z,94604.93
2019-01-08T19:26:42.090Z,94603.06
2019-01-08T19:29:10.655Z,94603.22
2019-01-08T19:31:39.239Z,94598.64
2019-01-08T19:34:09.388Z,94590.67
2019-01-08T19:36:38.332Z,94580.39
2019-01-08T19:39:07.881Z,94586.62
2019-01-08T19:41:36.477Z,94577.42
2019-01-08T19:44:05.101Z,94577.64
2019-01-08T19:46:33.687Z,94570.39
2019-01-08T19:49:02.360Z,94564.27
2019-01-08T19:51:31.186Z,94552.06
2019-01-08T19:53:59.752Z,94565.08
2019-01-08T19:56:28.278Z,94560.86
2019-01-08T19:58:56.925Z,94554.16
2019-01-08T20:01:32.793Z,94546.75
2019-01-08T20:04:03.534Z,94552.10
2019-01-08T20:06:31.748Z,94549.53
2019-01-08T20:09:01.373Z,94558.12
2019-01-08T20:11:30.234Z,94551.43
2019-01-08T20:13:58.799Z,94545.48
2019-01-08T20:16:27.298Z,94546.20
2019-01-08T20:18:56.193Z,94540.87
2019-01-08T20:21:24.820Z,94534.58
2019-01-08T20:23:53.559Z,94541.66
2019-01-08T20:26:22.191Z,94537.88
2019-01-08T20:28:50.797Z,94528.55
2019-01-08T20:31:19.481Z,94530.65
2019-01-08T20:33:48.052Z,94528.00
2019-01-08T20:36:16.691Z,94534.92
2019-01-08T20:38:45.369Z,94530.94
2019-01-08T20:41:14.051Z,94527.69
2019-01-08T20:43:42.565Z,94533.41
2019-01-08T20:46:11.237Z,94529.70
2019-01-08T20:48:39.797Z,94528.40
2019-01-08T20:51:08.293Z,94520.59
2019-01-08T20:53:36.891Z,94515.21
2019-01-08T20:56:05.521Z,94505.00
2019-01-08T20:58:34.090Z,94510.47
2019-01-08T21:01:02.922Z,94511.23
2019-01-08T21:03:31.474Z,94507.23
2019-01-08T21:06:00.109Z,94503.20
2019-01-08T21:08:28.747Z,94511.41
2019-01-08T21:10:57.246Z,94505.30
2019-01-08T21:13:25.814Z,94504.58
2019-01-08T21:15:54.475Z,94511.07
2019-01-08T21:18:23.030Z,94503.22
2019-01-08T21:20:51.747Z,94495.61
2019-01-08T21:23:20.350Z,94499.80
2019-01-08T21:25:48.991Z,94501.33
2019-01-08T21:28:17.548Z,94499.20
2019-01-08T21:30:46.292Z,94499.56
2019-01-08T21:33:14.863Z,94506.00
2019-01-08T21:35:43.489Z,94502.95
2019-01-08T21:38:12.165Z,94505.26
2019-01-08T21:40:40.721Z,94508.08
2019-01-08T21:43:09.365Z,94501.02
2019-01-08T21:45:37.960Z,94500.80
2019-01-08T21:48:06.511Z,94480.85
2019-01-08T21:50:35.250Z,94490.13
2019-01-08T21:53:03.896Z,94491.09
2019-01-08T21:55:32.530Z,94488.19
2019-01-08T21:58:01.208Z,94478.03
2019-01-08T22:00:29.844Z,94468.81
2019-01-08T22:02:58.585Z,94475.69
2019-01-08T22:05:27.254Z,94472.62
2019-01-08T22:07:55.977Z,94471.28
2019-01-08T22:10:24.595Z,94469.34
2019-01-08T22:12:53.260Z,94468.03
2019-01-08T22:15:21.830Z,94464.42
2019-01-08T22:17:50.408Z,94461.75
2019-01-08T22:20:19.263Z,94457.38
2019-01-08T22:22:52.611Z,94446.06
2019-01-08T22:25:18.112Z,94461.00
2019-01-08T22:27:46.894Z,94453.19
2019-01-08T22:30:15.534Z,94445.13
2019-01-08T22:32:44.265Z,94439.77
2019-01-08T22:35:12.948Z,94431.56
2019-01-08T22:37:41.571Z,94434.23
2019-01-08T22:40:10.206Z,94424.88
2019-01-08T22:42:39.822Z,94429.83
2019-01-08T22:45:08.655Z,94430.00
2019-01-08T22:47:37.305Z,94421.40
2019-01-08T22:50:07.952Z,94424.66
2019-01-08T22:52:37.821Z,94415.67
2019-01-08T22:55:06.994Z,94412.23
2019-01-08T22:57:36.671Z,94411.45
2019-01-08T23:00:09.842Z,94405.55
2019-01-08T23:02:38.767Z,94404.22
2019-01-08T23:05:10.964Z,94401.52
2019-01-08T23:07:37.970Z,94406.09
2019-01-08T23:10:07.215Z,94409.71
2019-01-08T23:12:35.868Z,94412.78
2019-01-08T23:15:05.800Z,94406.62
2019-01-08T23:17:34.416Z,94411.17
2019-01-08T23:20:03.326Z,94397.94
2019-01-08T23:22:31.969Z,94399.84
2019-01-08T23:25:00.609Z,94386.67
2019-01-08T23:27:29.277Z,94391.11
2019-01-08T23:29:57.918Z,94384.42
2019-01-08T23:32:26.489Z,94382.91
2019-01-08T23:34:55.335Z,94396.28
2019-01-08T23:37:23.962Z,94395.16
2019-01-08T23:39:52.589Z,94389.02
2019-01-08T23:47:41.694Z,94381.23
2019-01-08T23:50:10.422Z,94386.80
2019-01-08T23:52:42.015Z,94384.11
2019-01-08T23:55:10.819Z,94391.20
2019-01-08T23:57:41.458Z,94400.81
